Hearn Island, Louisiana
Current Conditions -  °F | °C
As of 10:53 PM on Wednesday 22 Oct 2014 (Local Time) from KMLU Reporting Station
Clear Clear  
Wind Chill: 55°   Ceiling: Unl
Heat Index: 55°   Visibility: 10mi
Dew Point: 50°   Wind: 5mph
Humidity: 83%   Direction: 340°NNW
Pressure: 30.17"   Gusts: NA
Location:  32.1631°N, 92.1971°W
Report Text: KMLU 230353Z AUTO 34004KT 10SM CLR 13/10 A3017 RMK AO2 SLP215 T01280100
Loading
Personal Weather Stations






























Interactive Weather Map
Tropical Storm Tracking
New forecast layout! Learn more

10-Day Weather Forecast

Advertisements
Track Severe Weather on mobile